Time;durP1;ratioP1;P1;durP2;ratioP2;P2;SDS_P1;SDS_P2;PMS_P1;PMS_P2;Temp;Humidity;BMP_temperature;BMP_pressure;BME280_temperature;BME280_humidity;BME280_pressure;Samples;Min_cycle;Max_cycle;Signal;HPM_P1;HPM_P2
2022/04/29 00:02:23;;;;;;;1.77;1.67;;;8.10;99.90;;;;;;5099300;28;20046;-84
2022/04/29 00:04:49;;;;;;;4.10;2.03;;;8.00;99.90;;;;;;5101966;28;20140;-84
2022/04/29 00:07:15;;;;;;;1.70;1.60;;;8.00;99.90;;;;;;5101778;28;20039;-83
2022/04/29 00:09:41;;;;;;;2.03;1.77;;;8.00;99.90;;;;;;5101542;28;20043;-83
2022/04/29 00:12:07;;;;;;;1.50;1.35;;;8.00;99.90;;;;;;5109035;27;20071;-84
2022/04/29 00:14:33;;;;;;;2.55;1.92;;;8.00;99.90;;;;;;5083247;28;20050;-84
2022/04/29 00:16:59;;;;;;;5.30;1.80;;;8.00;99.90;;;;;;5101134;28;20044;-84
2022/04/29 00:19:25;;;;;;;1.98;1.52;;;7.90;99.90;;;;;;5101614;28;20039;-84
2022/04/29 00:21:50;;;;;;;2.78;2.25;;;8.00;99.90;;;;;;5101229;28;20135;-84
2022/04/29 00:24:16;;;;;;;4.75;1.52;;;7.90;99.90;;;;;;5101529;28;20097;-83
2022/04/29 00:26:42;;;;;;;5.80;2.35;;;7.90;99.90;;;;;;5101636;28;20557;-83
2022/04/29 00:29:09;;;;;;;3.00;2.08;;;8.00;99.90;;;;;;5101237;28;20452;-84
2022/04/29 00:31:35;;;;;;;2.05;1.45;;;7.90;99.90;;;;;;5100642;28;20044;-84
2022/04/29 00:34:01;;;;;;;3.30;2.28;;;7.90;99.90;;;;;;5083743;28;20066;-83
2022/04/29 00:36:26;;;;;;;5.13;1.85;;;7.90;99.90;;;;;;5105656;28;20043;-83
2022/04/29 00:38:52;;;;;;;1.83;1.73;;;7.90;99.90;;;;;;5121907;27;20035;-83
2022/04/29 00:41:19;;;;;;;1.50;1.40;;;7.90;99.90;;;;;;5121612;27;20459;-84
2022/04/29 00:43:45;;;;;;;3.47;1.75;;;7.90;99.90;;;;;;5122066;28;20122;-84
2022/04/29 00:46:10;;;;;;;3.65;1.77;;;7.90;99.90;;;;;;5121018;27;20118;-84
2022/04/29 00:48:36;;;;;;;3.33;1.40;;;7.90;99.90;;;;;;5121867;27;20489;-83
2022/04/29 00:51:02;;;;;;;4.10;1.65;;;7.90;99.90;;;;;;5121951;28;20047;-83
2022/04/29 00:53:29;;;;;;;7.53;2.10;;;7.90;99.90;;;;;;5122220;28;20126;-83
2022/04/29 00:55:56;;;;;;;18.42;2.03;;;7.90;99.90;;;;;;5121333;28;20051;-84
2022/04/29 00:58:32;;;;;;;5.43;2.58;;;7.90;99.90;;;;;;5120894;28;20027;-82
2022/04/29 01:01:00;;;;;;;2.95;1.85;;;7.90;99.90;;;;;;5121448;28;20049;-83
2022/04/29 01:03:27;;;;;;;2.47;2.28;;;7.90;99.90;;;;;;5105896;27;20077;-83
2022/04/29 01:05:53;;;;;;;6.82;1.75;;;7.90;99.90;;;;;;5090091;27;20058;-84
2022/04/29 01:08:19;;;;;;;1.13;1.02;;;7.90;99.90;;;;;;5106854;27;20481;-84
2022/04/29 01:10:46;;;;;;;1.67;1.58;;;7.90;99.90;;;;;;5125469;27;20906;-83
2022/04/29 01:13:12;;;;;;;2.53;1.67;;;7.90;99.90;;;;;;5125252;27;20508;-84
2022/04/29 01:15:38;;;;;;;8.13;1.67;;;7.90;99.90;;;;;;5107054;27;20047;-84
2022/04/29 01:18:08;;;;;;;4.88;1.42;;;7.90;99.90;;;;;;5124529;27;20039;-83
2022/04/29 01:20:35;;;;;;;1.65;1.25;;;7.90;99.90;;;;;;5125398;27;20385;-83
2022/04/29 01:23:04;;;;;;;1.13;1.13;;;7.90;99.90;;;;;;5110860;27;20043;-77
2022/04/29 01:25:30;;;;;;;1.38;1.27;;;7.90;99.90;;;;;;5105467;28;20055;-84
2022/04/29 01:27:56;;;;;;;6.20;3.05;;;7.90;99.90;;;;;;5104976;28;20036;-84
2022/04/29 01:30:21;;;;;;;7.93;1.73;;;7.90;99.90;;;;;;5104563;28;20043;-84
2022/04/29 01:32:47;;;;;;;2.58;1.70;;;7.90;99.90;;;;;;5103985;28;20039;-84
2022/04/29 01:35:14;;;;;;;2.42;2.08;;;7.80;99.90;;;;;;5086282;28;20047;-83
2022/04/29 01:37:42;;;;;;;8.48;2.22;;;7.80;99.90;;;;;;5104771;28;20053;-84
2022/04/29 01:40:09;;;;;;;6.07;1.75;;;7.80;99.90;;;;;;5104075;28;20048;-83
2022/04/29 01:42:36;;;;;;;2.00;1.90;;;7.90;99.90;;;;;;5105046;27;20478;-84
2022/04/29 01:45:01;;;;;;;3.10;2.63;;;7.80;99.90;;;;;;5124929;27;20089;-84
2022/04/29 01:47:27;;;;;;;1.10;1.10;;;7.80;99.90;;;;;;5106127;27;20474;-84
2022/04/29 01:49:52;;;;;;;3.85;2.92;;;7.80;99.90;;;;;;5124899;27;20108;-83
2022/04/29 01:52:18;;;;;;;2.05;1.95;;;7.80;99.90;;;;;;5124768;27;20069;-84
2022/04/29 01:54:43;;;;;;;1.00;0.88;;;7.80;99.90;;;;;;5123930;27;20034;-83
2022/04/29 01:57:09;;;;;;;3.22;2.17;;;7.80;99.90;;;;;;5072222;27;20501;-83
2022/04/29 01:59:35;;;;;;;1.67;1.33;;;7.80;99.90;;;;;;5125024;27;20536;-84
2022/04/29 02:02:03;;;;;;;2.53;1.70;;;7.70;99.90;;;;;;5105463;27;20057;-84
2022/04/29 02:04:29;;;;;;;2.33;2.00;;;7.70;99.90;;;;;;5105726;27;20114;-84
2022/04/29 02:06:55;;;;;;;2.38;1.70;;;7.70;99.90;;;;;;5103990;28;20050;-84
2022/04/29 02:09:21;;;;;;;2.03;1.92;;;7.70;99.90;;;;;;5122908;27;20092;-84
2022/04/29 02:12:05;;;;;;;5.20;1.83;;;7.70;99.90;;;;;;5124541;27;20074;-83
2022/04/29 02:14:39;;;;;;;1.63;1.52;;;7.70;99.90;;;;;;5106076;27;20130;-83
2022/04/29 02:17:06;;;;;;;1.88;1.75;;;7.70;99.90;;;;;;5123421;27;20144;-84
2022/04/29 02:19:33;;;;;;;1.77;1.45;;;7.70;99.90;;;;;;5124307;27;20078;-84
2022/04/29 02:22:00;;;;;;;2.30;2.10;;;7.70;99.90;;;;;;5124453;27;20092;-83
2022/04/29 02:24:26;;;;;;;2.08;1.98;;;7.70;99.90;;;;;;5124422;27;20043;-84
2022/04/29 02:26:53;;;;;;;2.20;2.00;;;7.60;99.90;;;;;;5124387;27;20040;-84
2022/04/29 02:29:19;;;;;;;4.05;1.90;;;7.60;99.90;;;;;;5105777;27;20119;-84
2022/04/29 02:31:45;;;;;;;1.85;1.75;;;7.60;99.90;;;;;;5123132;27;20047;-83
2022/04/29 02:34:11;;;;;;;4.05;2.35;;;7.60;99.90;;;;;;5123871;27;20046;-84
2022/04/29 02:36:36;;;;;;;2.83;2.42;;;7.60;99.90;;;;;;5123985;27;20038;-84
2022/04/29 02:39:03;;;;;;;8.35;2.25;;;7.60;99.90;;;;;;5106806;27;20188;-83
2022/04/29 02:41:29;;;;;;;1.60;1.48;;;7.50;99.90;;;;;;5103330;28;20047;-83
2022/04/29 02:43:54;;;;;;;1.48;1.38;;;7.50;99.90;;;;;;5103428;28;20043;-84
2022/04/29 02:46:20;;;;;;;10.65;2.33;;;7.50;99.90;;;;;;5112392;27;20043;-83
2022/04/29 02:48:48;;;;;;;2.45;2.25;;;7.50;99.90;;;;;;5123537;27;20374;-83
2022/04/29 02:51:13;;;;;;;1.98;1.77;;;7.50;99.90;;;;;;5123018;27;20043;-83
2022/04/29 02:53:39;;;;;;;2.15;2.00;;;7.60;99.90;;;;;;5123124;27;20035;-83
2022/04/29 02:56:04;;;;;;;4.35;1.92;;;7.50;99.90;;;;;;5123360;27;20061;-83
2022/04/29 02:58:30;;;;;;;1.63;1.52;;;7.50;99.90;;;;;;5123904;27;20070;-83
2022/04/29 03:00:58;;;;;;;2.85;2.53;;;7.50;99.90;;;;;;5123412;27;20047;-83
2022/04/29 03:03:24;;;;;;;6.70;2.45;;;7.50;99.90;;;;;;5107818;27;20043;-84
2022/04/29 03:05:49;;;;;;;4.55;3.22;;;7.50;99.90;;;;;;5102657;28;20039;-83
2022/04/29 03:08:15;;;;;;;2.17;1.83;;;7.60;99.90;;;;;;5102831;28;20044;-83
2022/04/29 03:10:41;;;;;;;1.48;1.38;;;7.50;99.90;;;;;;5102166;27;20082;-83
2022/04/29 03:13:06;;;;;;;11.10;1.65;;;7.50;99.90;;;;;;5123181;27;20051;-84
2022/04/29 03:15:33;;;;;;;2.08;1.92;;;7.50;99.90;;;;;;5122538;27;20542;-84
2022/04/29 03:20:44;;;;;;;3.30;3.10;;;7.50;99.90;;;;;;5104632;27;20075;-83
2022/04/29 03:23:12;;;;;;;2.63;2.45;;;7.50;99.90;;;;;;5122555;27;20119;-83
2022/04/29 03:25:38;;;;;;;1.48;1.20;;;7.50;99.90;;;;;;5122506;27;20047;-84
2022/04/29 03:28:07;;;;;;;2.65;2.45;;;7.60;99.90;;;;;;5104311;27;20504;-84
2022/04/29 03:30:33;;;;;;;2.03;1.80;;;7.50;99.90;;;;;;5121488;27;20039;-84
2022/04/29 03:33:02;;;;;;;3.70;2.10;;;7.60;99.90;;;;;;5123321;27;20051;-84
2022/04/29 03:35:28;;;;;;;2.35;2.15;;;7.50;99.90;;;;;;5084116;28;20067;-84
2022/04/29 03:37:54;;;;;;;2.33;1.40;;;7.50;99.90;;;;;;5102421;28;20140;-84
2022/04/29 03:40:21;;;;;;;3.10;1.77;;;7.60;99.90;;;;;;5102135;28;20043;-84
2022/04/29 03:42:54;;;;;;;2.10;1.65;;;7.60;99.90;;;;;;5101962;28;20066;-84
2022/04/29 03:45:21;;;;;;;3.25;1.63;;;7.60;99.90;;;;;;5103080;27;20063;-84
2022/04/29 03:47:47;;;;;;;3.45;1.75;;;7.60;99.90;;;;;;5122614;27;20035;-84
2022/04/29 03:50:13;;;;;;;17.35;2.63;;;7.60;99.90;;;;;;5122398;27;20043;-84
2022/04/29 03:53:07;;;;;;;1.63;1.42;;;7.60;99.90;;;;;;5112668;27;20119;-83
2022/04/29 03:55:34;;;;;;;2.75;2.00;;;7.60;99.90;;;;;;5084061;28;20420;-84
2022/04/29 03:58:03;;;;;;;2.17;2.00;;;7.60;99.90;;;;;;5102491;28;20031;-84
2022/04/29 04:00:32;;;;;;;1.75;1.65;;;7.60;99.90;;;;;;5101318;28;20043;-84
2022/04/29 04:03:05;;;;;;;4.63;2.00;;;7.60;99.90;;;;;;5102493;28;20035;-83
2022/04/29 04:05:32;;;;;;;4.43;1.95;;;7.60;99.90;;;;;;5101446;28;20043;-84
2022/04/29 04:07:57;;;;;;;3.42;1.67;;;7.60;99.90;;;;;;5102265;28;20039;-84
2022/04/29 04:10:23;;;;;;;1.50;1.40;;;7.60;99.90;;;;;;5083394;28;20053;-84
2022/04/29 04:12:50;;;;;;;1.13;1.13;;;7.60;99.90;;;;;;5101332;28;20047;-84
2022/04/29 04:15:18;;;;;;;1.13;1.10;;;7.60;99.90;;;;;;5100824;28;20046;-84
2022/04/29 04:17:44;;;;;;;8.98;1.48;;;7.60;99.90;;;;;;5101676;28;20044;-84
2022/04/29 04:20:11;;;;;;;2.88;1.00;;;7.60;99.90;;;;;;5101488;28;20039;-84
2022/04/29 04:22:37;;;;;;;3.05;2.35;;;7.60;99.90;;;;;;5101616;28;20039;-84
2022/04/29 04:25:04;;;;;;;1.60;1.50;;;7.60;99.90;;;;;;5101172;28;20039;-83
2022/04/29 04:27:31;;;;;;;2.72;1.20;;;7.60;99.90;;;;;;5102258;28;20043;-83
2022/04/29 04:29:57;;;;;;;2.38;1.45;;;7.60;99.90;;;;;;5102972;28;20035;-83
2022/04/29 04:32:23;;;;;;;18.48;2.65;;;7.60;99.90;;;;;;5120968;27;20047;-84
2022/04/29 04:34:51;;;;;;;1.90;1.70;;;7.60;99.90;;;;;;5104061;28;20122;-83
2022/04/29 04:37:21;;;;;;;4.28;2.45;;;7.60;99.90;;;;;;5121451;27;20047;-83
2022/04/29 04:39:47;;;;;;;5.53;2.30;;;7.60;99.90;;;;;;5125944;27;20053;-83
2022/04/29 04:42:13;;;;;;;2.10;1.77;;;7.60;99.90;;;;;;5107942;27;20511;-83
2022/04/29 04:44:38;;;;;;;4.00;2.13;;;7.60;99.90;;;;;;5125897;27;20130;-83
2022/04/29 04:47:08;;;;;;;1.77;1.50;;;7.60;99.90;;;;;;5125096;27;20066;-84
2022/04/29 04:49:34;;;;;;;3.33;1.80;;;7.60;99.90;;;;;;5126037;27;20049;-83
2022/04/29 04:52:00;;;;;;;4.10;1.90;;;7.60;99.90;;;;;;5106979;27;20088;-83
2022/04/29 04:54:26;;;;;;;1.80;1.70;;;7.60;99.90;;;;;;5126674;27;20039;-83
2022/04/29 04:56:52;;;;;;;5.30;2.40;;;7.60;99.90;;;;;;5107567;27;20749;-83
2022/04/29 04:59:17;;;;;;;2.25;1.90;;;7.60;99.90;;;;;;5092997;28;20122;-83
2022/04/29 05:01:43;;;;;;;2.15;2.05;;;7.60;99.90;;;;;;5104586;28;20039;-83
2022/04/29 05:04:09;;;;;;;1.75;1.65;;;7.60;99.90;;;;;;5104729;28;20039;-84
2022/04/29 05:06:37;;;;;;;1.83;1.73;;;7.70;99.90;;;;;;5105176;28;20078;-83
2022/04/29 05:09:03;;;;;;;2.28;2.00;;;7.70;99.90;;;;;;5105110;28;20044;-83
2022/04/29 05:11:29;;;;;;;2.20;2.00;;;7.70;99.90;;;;;;5105243;28;20051;-83
2022/04/29 05:13:54;;;;;;;2.17;1.98;;;7.70;99.90;;;;;;5105083;28;20539;-83
2022/04/29 05:16:20;;;;;;;6.30;2.67;;;7.80;99.90;;;;;;5104063;28;20298;-83
2022/04/29 05:18:45;;;;;;;2.03;1.92;;;7.80;99.90;;;;;;5104966;28;20070;-83
2022/04/29 05:21:11;;;;;;;16.23;2.13;;;7.80;99.90;;;;;;5103314;28;20122;-83
2022/04/29 05:23:37;;;;;;;2.53;2.33;;;7.80;99.90;;;;;;5097509;27;20412;-84
2022/04/29 05:26:03;;;;;;;12.35;1.42;;;7.80;99.90;;;;;;5124689;27;20043;-84
2022/04/29 05:28:29;;;;;;;6.18;2.65;;;7.80;99.90;;;;;;5106068;27;20043;-84
2022/04/29 05:30:56;;;;;;;2.88;2.42;;;7.80;99.90;;;;;;5124036;27;20039;-83
2022/04/29 05:33:22;;;;;;;3.67;2.53;;;7.90;99.90;;;;;;5125076;27;20671;-83
2022/04/29 05:35:48;;;;;;;1.95;1.85;;;7.90;99.90;;;;;;5116723;27;20040;-83
2022/04/29 05:38:14;;;;;;;4.63;2.17;;;7.90;99.90;;;;;;5103917;28;20497;-82
2022/04/29 05:43:23;;;;;;;2.78;2.30;;;7.90;99.90;;;;;;5103493;28;20098;-83
2022/04/29 05:45:49;;;;;;;7.35;1.92;;;7.90;99.90;;;;;;5122871;27;20509;-82
2022/04/29 05:48:14;;;;;;;1.45;1.35;;;7.90;99.90;;;;;;5105800;27;20103;-83
2022/04/29 05:50:40;;;;;;;3.97;1.70;;;8.00;99.90;;;;;;5124657;27;20133;-82
2022/04/29 05:53:06;;;;;;;3.45;2.25;;;8.00;99.90;;;;;;5124138;27;20027;-83
2022/04/29 05:55:31;;;;;;;0.90;0.90;;;8.00;99.90;;;;;;5122466;27;20794;-92
2022/04/29 05:57:57;;;;;;;4.68;2.05;;;8.00;99.90;;;;;;5106171;27;20214;-84
2022/04/29 06:00:22;;;;;;;1.83;1.75;;;8.00;99.90;;;;;;5094106;27;20310;-80
2022/04/29 06:02:48;;;;;;;2.13;1.92;;;8.00;99.90;;;;;;5122281;27;20132;-81
2022/04/29 06:05:13;;;;;;;2.28;2.08;;;8.10;99.90;;;;;;5123336;27;20213;-81
2022/04/29 06:07:41;;;;;;;5.68;2.60;;;8.10;99.90;;;;;;5105269;27;20661;-84
2022/04/29 06:10:07;;;;;;;3.10;2.50;;;8.10;99.90;;;;;;5121971;27;20160;-80
2022/04/29 06:12:43;;;;;;;4.32;2.25;;;8.20;99.90;;;;;;5123592;27;20501;-80
2022/04/29 06:15:14;;;;;;;4.22;2.15;;;8.20;99.90;;;;;;5120548;27;20051;-79
2022/04/29 06:17:40;;;;;;;2.75;2.53;;;8.20;99.90;;;;;;5123587;27;20042;-79
2022/04/29 06:20:06;;;;;;;2.28;1.92;;;8.30;99.90;;;;;;5123363;27;20374;-79
2022/04/29 06:22:32;;;;;;;2.30;2.13;;;8.30;99.90;;;;;;5122519;27;20074;-79
2022/04/29 06:24:58;;;;;;;2.42;2.17;;;8.30;99.90;;;;;;5124594;27;20485;-79
2022/04/29 06:27:23;;;;;;;2.75;1.10;;;8.40;99.90;;;;;;5122748;27;20035;-79
2022/04/29 06:29:49;;;;;;;2.63;2.22;;;8.40;99.90;;;;;;5122498;27;20035;-79
2022/04/29 06:32:14;;;;;;;1.45;1.35;;;8.40;99.90;;;;;;5104499;27;20414;-79
2022/04/29 06:34:42;;;;;;;2.63;2.10;;;8.50;99.90;;;;;;5104517;27;20054;-80
2022/04/29 06:37:07;;;;;;;4.57;2.25;;;8.50;99.90;;;;;;5104102;27;20043;-79
2022/04/29 06:39:33;;;;;;;2.55;1.67;;;8.50;99.90;;;;;;5116229;27;20046;-80
2022/04/29 06:41:58;;;;;;;16.42;2.00;;;8.50;99.90;;;;;;5102766;28;20177;-79
2022/04/29 06:44:24;;;;;;;7.55;1.45;;;8.60;99.90;;;;;;5083800;28;20460;-80
2022/04/29 06:46:52;;;;;;;5.80;1.40;;;8.60;99.90;;;;;;5116771;27;20132;-80
2022/04/29 06:49:18;;;;;;;1.58;1.48;;;8.60;99.90;;;;;;5123384;27;20314;-80
2022/04/29 06:51:43;;;;;;;2.50;1.10;;;8.70;99.90;;;;;;5122181;27;20039;-80
2022/04/29 06:54:09;;;;;;;1.42;1.10;;;8.70;99.90;;;;;;5086668;27;20108;-80
2022/04/29 06:56:35;;;;;;;9.23;1.98;;;8.70;99.90;;;;;;5122374;27;20525;-80
2022/04/29 06:59:03;;;;;;;6.97;1.45;;;8.70;99.90;;;;;;5122132;27;20540;-80
2022/04/29 07:01:29;;;;;;;1.10;1.10;;;8.80;99.90;;;;;;5121492;27;20053;-80
2022/04/29 07:03:55;;;;;;;1.45;1.13;;;8.80;99.90;;;;;;5121528;27;20310;-80
2022/04/29 07:06:21;;;;;;;11.02;1.45;;;8.80;99.90;;;;;;5122044;27;20497;-80
2022/04/29 07:08:47;;;;;;;2.42;1.60;;;8.90;99.90;;;;;;5103178;27;20032;-81
2022/04/29 07:11:13;;;;;;;1.42;1.30;;;8.90;99.90;;;;;;5102174;28;20548;-81
2022/04/29 07:13:39;;;;;;;0.52;0.52;;;9.00;99.90;;;;;;5102859;27;20721;-80
2022/04/29 07:16:05;;;;;;;1.23;1.13;;;9.00;99.90;;;;;;5120619;27;20107;-78
2022/04/29 07:18:31;;;;;;;0.90;0.90;;;9.10;99.90;;;;;;5113387;27;20674;-78
2022/04/29 07:20:57;;;;;;;0.70;0.70;;;9.10;99.90;;;;;;5104168;27;20070;-78
2022/04/29 07:23:22;;;;;;;3.03;2.15;;;9.20;99.90;;;;;;5119944;27;20595;-80
2022/04/29 07:25:48;;;;;;;1.05;1.05;;;9.20;99.90;;;;;;5122155;27;20504;-83
2022/04/29 07:28:13;;;;;;;0.82;0.82;;;9.20;99.90;;;;;;5107659;27;20035;-80
2022/04/29 07:30:39;;;;;;;0.85;0.75;;;9.30;99.90;;;;;;5102527;27;20054;-80
2022/04/29 07:33:04;;;;;;;1.33;1.20;;;9.30;99.90;;;;;;5119804;27;20046;-86
2022/04/29 07:44:03;;;;;;;0.82;0.82;;;9.40;99.90;;;;;;5097078;27;20080;-85
2022/04/29 07:46:28;;;;;;;2.03;1.13;;;9.50;99.90;;;;;;5121856;27;20031;-89
2022/04/29 07:48:54;;;;;;;0.80;0.80;;;9.50;99.90;;;;;;5114134;27;20759;-91
2022/04/29 07:51:20;;;;;;;1.35;1.25;;;9.60;99.90;;;;;;5083658;27;20565;-85
2022/04/29 07:53:45;;;;;;;1.27;1.10;;;9.60;99.90;;;;;;5106185;27;20062;-89
2022/04/29 07:56:11;;;;;;;0.40;0.40;;;9.60;99.90;;;;;;5109811;27;20039;-86
2022/04/29 07:58:38;;;;;;;5.22;0.90;;;9.70;99.90;;;;;;5118848;27;20049;-86
2022/04/29 08:01:09;;;;;;;4.47;1.05;;;9.70;99.90;;;;;;5120702;27;20039;-86
2022/04/29 08:03:36;;;;;;;0.77;0.77;;;9.70;99.90;;;;;;5121767;27;20039;-86
2022/04/29 08:06:03;;;;;;;3.33;1.77;;;9.70;99.90;;;;;;5099089;27;20480;-86
2022/04/29 08:08:29;;;;;;;1.40;1.00;;;9.80;99.90;;;;;;5105714;27;20126;-86
2022/04/29 08:10:54;;;;;;;1.02;0.93;;;9.80;99.90;;;;;;5123042;27;20130;-82
2022/04/29 08:13:20;;;;;;;1.58;1.17;;;9.90;99.90;;;;;;5101614;27;20287;-84
2022/04/29 08:15:48;;;;;;;1.33;1.23;;;10.00;99.90;;;;;;5120734;27;20040;-83
2022/04/29 08:18:13;;;;;;;1.13;1.08;;;10.00;99.90;;;;;;5102189;27;20039;-83
2022/04/29 08:20:40;;;;;;;2.25;2.05;;;10.00;99.90;;;;;;5101125;28;20482;-83
2022/04/29 08:23:06;;;;;;;19.17;1.45;;;10.00;99.90;;;;;;5116093;27;20047;-83
2022/04/29 08:25:31;;;;;;;3.55;1.60;;;10.10;99.90;;;;;;5113935;27;20043;-83
2022/04/29 08:27:59;;;;;;;1.25;1.20;;;10.10;99.90;;;;;;5095848;28;20137;-82
2022/04/29 08:30:25;;;;;;;2.83;1.08;;;10.00;99.90;;;;;;5116797;28;20113;-82
2022/04/29 08:32:51;;;;;;;1.55;1.45;;;10.00;99.90;;;;;;5094901;28;20135;-81
2022/04/29 08:35:16;;;;;;;9.23;1.83;;;10.10;99.90;;;;;;5120432;28;20050;-82
2022/04/29 08:37:43;;;;;;;1.65;1.17;;;10.10;99.90;;;;;;5121168;27;20490;-84
2022/04/29 08:40:11;;;;;;;1.50;1.38;;;10.10;99.90;;;;;;5109183;28;20120;-83
2022/04/29 08:42:37;;;;;;;2.80;1.40;;;10.00;99.90;;;;;;5122707;28;20050;-84
2022/04/29 08:45:08;;;;;;;3.50;1.48;;;10.00;99.90;;;;;;5113705;27;20046;-85
2022/04/29 08:47:39;;;;;;;1.05;0.95;;;10.00;99.90;;;;;;5102843;28;20107;-84
2022/04/29 08:50:15;;;;;;;1.95;1.15;;;10.00;99.90;;;;;;5121514;28;20174;-85
2022/04/29 08:52:44;;;;;;;2.45;1.42;;;10.00;99.90;;;;;;5121706;28;20487;-87
2022/04/29 09:00:41;;;;;;;0.80;0.80;;;10.00;99.90;;;;;;5085973;28;20054;-84
2022/04/29 09:03:16;;;;;;;1.33;1.23;;;10.00;99.90;;;;;;5120253;28;20386;-84
2022/04/29 09:05:43;;;;;;;2.83;1.58;;;10.00;99.90;;;;;;5119305;27;20039;-82
2022/04/29 09:08:12;;;;;;;1.25;1.10;;;10.00;99.90;;;;;;5119691;27;20035;-82
2022/04/29 09:11:00;;;;;;;5.30;1.38;;;10.10;99.90;;;;;;5119561;28;20081;-82
2022/04/29 09:13:30;;;;;;;4.07;1.75;;;10.10;99.90;;;;;;5118339;28;20058;-82
2022/04/29 09:16:04;;;;;;;0.95;0.95;;;10.10;99.90;;;;;;5101603;28;20044;-81
2022/04/29 09:18:40;;;;;;;1.52;1.33;;;10.10;99.90;;;;;;5102658;28;20376;-82
2022/04/29 09:21:11;;;;;;;1.27;1.25;;;10.20;99.90;;;;;;5119004;28;20042;-83
2022/04/29 09:23:47;;;;;;;1.85;1.75;;;10.30;99.90;;;;;;5121521;27;20050;-82
2022/04/29 09:26:32;;;;;;;2.40;1.60;;;10.30;99.90;;;;;;5124112;27;20043;-82
2022/04/29 09:29:24;;;;;;;2.53;1.08;;;10.30;99.90;;;;;;5125344;27;20039;-82
2022/04/29 09:31:56;;;;;;;2.10;1.98;;;10.30;99.90;;;;;;5120404;27;20103;-82
2022/04/29 09:34:22;;;;;;;9.50;1.83;;;10.30;99.90;;;;;;5124385;27;20039;-82
2022/04/29 09:36:48;;;;;;;1.30;1.25;;;10.30;99.90;;;;;;5123934;27;20401;-82
2022/04/29 09:39:26;;;;;;;1.52;1.50;;;10.40;99.90;;;;;;5113410;27;20644;-82
2022/04/29 09:42:04;;;;;;;1.40;1.40;;;10.30;99.90;;;;;;5124820;27;20039;-83
2022/04/29 09:44:34;;;;;;;1.55;1.45;;;10.30;99.90;;;;;;5118890;27;20074;-82
2022/04/29 09:47:14;;;;;;;1.23;1.15;;;10.30;99.90;;;;;;5119911;27;20039;-82
2022/04/29 09:49:40;;;;;;;7.47;1.48;;;10.40;99.90;;;;;;5106036;27;20120;-82
2022/04/29 09:52:07;;;;;;;1.63;1.52;;;10.40;99.90;;;;;;5123614;27;20046;-83
2022/04/29 09:54:37;;;;;;;7.65;1.73;;;10.40;99.90;;;;;;5124870;27;20031;-82
2022/04/29 09:57:24;;;;;;;1.40;1.30;;;10.40;99.90;;;;;;5106284;27;20039;-82
2022/04/29 09:59:53;;;;;;;3.45;1.42;;;10.40;99.90;;;;;;5123612;27;20321;-83
2022/04/29 10:02:21;;;;;;;1.77;1.67;;;10.40;99.90;;;;;;5123480;27;20103;-83
2022/04/29 10:04:48;;;;;;;1.60;1.48;;;10.30;99.90;;;;;;5121689;27;20214;-85
2022/04/29 10:07:16;;;;;;;1.90;1.02;;;10.30;99.90;;;;;;5124587;27;20275;-85
2022/04/29 10:09:50;;;;;;;8.88;1.85;;;10.40;99.90;;;;;;5123430;27;20039;-85
2022/04/29 10:12:18;;;;;;;1.55;1.45;;;10.40;99.90;;;;;;5123676;27;20454;-84
2022/04/29 10:14:44;;;;;;;1.55;1.45;;;10.40;99.90;;;;;;5122909;27;20051;-83
2022/04/29 10:23:15;;;;;;;1.15;1.15;;;10.40;99.90;;;;;;5120666;27;20047;-95
2022/04/29 10:25:46;;;;;;;7.07;2.47;;;10.40;99.90;;;;;;5125427;27;20046;-93
2022/04/29 10:28:17;;;;;;;1.70;1.27;;;10.40;99.90;;;;;;5120880;27;20139;-90
2022/04/29 10:31:16;;;;;;;1.27;1.17;;;10.30;99.90;;;;;;5101194;27;20047;-89
2022/04/29 10:33:42;;;;;;;1.45;1.38;;;10.30;99.90;;;;;;5084235;27;20481;-90
2022/04/29 10:36:14;;;;;;;1.45;1.35;;;10.30;99.90;;;;;;5126935;27;20111;-94
2022/04/29 10:38:42;;;;;;;1.73;1.63;;;10.20;99.90;;;;;;5086137;27;20043;-77
2022/04/29 10:41:10;;;;;;;1.65;1.55;;;10.20;99.90;;;;;;5121376;27;20035;-78
2022/04/29 10:43:59;;;;;;;2.47;1.33;;;10.20;99.90;;;;;;5122070;27;20035;-78
2022/04/29 10:46:36;;;;;;;3.50;1.20;;;10.30;99.90;;;;;;5107669;27;20044;-79
2022/04/29 10:49:22;;;;;;;1.48;1.38;;;10.30;99.90;;;;;;5094513;27;20074;-79
2022/04/29 10:51:50;;;;;;;3.72;2.00;;;10.30;99.90;;;;;;5089140;28;20055;-81
2022/04/29 10:54:35;;;;;;;2.10;1.70;;;10.30;99.90;;;;;;5104022;27;20040;-80
2022/04/29 10:57:04;;;;;;;1.58;1.48;;;10.40;99.90;;;;;;5116785;27;20047;-80
2022/04/29 10:59:50;;;;;;;2.15;1.73;;;10.40;99.90;;;;;;5104445;27;20485;-80
2022/04/29 11:02:30;;;;;;;14.07;1.42;;;10.40;99.90;;;;;;5124617;27;20043;-79
2022/04/29 11:04:57;;;;;;;2.80;2.00;;;10.40;99.90;;;;;;5104789;27;20558;-78
2022/04/29 11:07:47;;;;;;;2.10;1.63;;;10.40;99.90;;;;;;5104281;27;20389;-79
2022/04/29 11:10:22;;;;;;;1.63;1.23;;;10.40;99.90;;;;;;5122735;27;20046;-78
2022/04/29 11:13:03;;;;;;;1.65;1.52;;;10.50;99.90;;;;;;5122749;27;20081;-79
2022/04/29 11:15:49;;;;;;;1.52;1.42;;;10.50;99.90;;;;;;5102948;27;20050;-78
2022/04/29 11:18:25;;;;;;;4.15;1.60;;;10.50;99.90;;;;;;5110287;27;20039;-79
2022/04/29 11:20:56;;;;;;;4.63;1.83;;;10.40;99.90;;;;;;5122266;27;20051;-79
2022/04/29 11:26:14;;;;;;;2.33;1.48;;;10.50;99.90;;;;;;5107056;27;20553;-79
2022/04/29 11:28:40;;;;;;;1.27;1.20;;;10.60;99.90;;;;;;5123093;27;20046;-79
2022/04/29 11:31:08;;;;;;;2.08;1.95;;;10.60;99.90;;;;;;5120513;27;20710;-78
2022/04/29 11:33:38;;;;;;;2.63;1.80;;;10.60;99.90;;;;;;5104341;27;20047;-79
2022/04/29 11:36:12;;;;;;;1.50;1.40;;;10.60;99.90;;;;;;5121873;27;20043;-78
2022/04/29 11:38:43;;;;;;;1.48;1.38;;;10.60;99.90;;;;;;5122537;27;20039;-79
2022/04/29 11:41:21;;;;;;;1.95;1.77;;;10.60;99.90;;;;;;5103488;27;20107;-78
2022/04/29 11:43:51;;;;;;;1.65;1.55;;;10.60;99.90;;;;;;5120440;27;20131;-78
2022/04/29 11:46:17;;;;;;;0.80;0.80;;;10.60;99.90;;;;;;5122994;27;20056;-77
2022/04/29 11:48:50;;;;;;;1.25;1.15;;;10.60;99.90;;;;;;5121986;27;20031;-78
2022/04/29 11:51:15;;;;;;;1.50;1.23;;;10.60;99.90;;;;;;5122061;27;20035;-78
2022/04/29 11:53:54;;;;;;;5.38;0.98;;;10.70;99.90;;;;;;5122219;27;20039;-78
2022/04/29 11:56:19;;;;;;;0.80;0.80;;;10.70;99.90;;;;;;5121597;27;20113;-78
2022/04/29 11:58:45;;;;;;;2.45;1.67;;;10.70;99.90;;;;;;5115286;27;20181;-78
2022/04/29 12:01:14;;;;;;;1.20;1.20;;;10.80;99.90;;;;;;5093964;27;20100;-78
2022/04/29 12:03:48;;;;;;;5.90;1.35;;;10.80;99.90;;;;;;5094679;27;20049;-78
2022/04/29 12:06:14;;;;;;;6.10;1.67;;;10.80;99.90;;;;;;5096983;27;20031;-78
2022/04/29 12:08:40;;;;;;;1.00;1.00;;;10.90;99.90;;;;;;5114591;27;20038;-79
2022/04/29 12:11:06;;;;;;;2.22;1.48;;;10.80;99.90;;;;;;5101961;27;20554;-79
2022/04/29 12:13:32;;;;;;;1.42;1.42;;;10.80;99.90;;;;;;5117473;27;20040;-80
2022/04/29 12:15:57;;;;;;;3.20;1.35;;;10.80;99.90;;;;;;5119950;27;20035;-78
2022/04/29 12:18:44;;;;;;;3.58;1.10;;;10.80;99.90;;;;;;5120087;27;20024;-79
2022/04/29 12:21:10;;;;;;;4.60;1.88;;;10.80;99.90;;;;;;5117146;27;20046;-78
2022/04/29 12:23:36;;;;;;;1.45;1.35;;;10.90;99.90;;;;;;5118651;27;20036;-77
2022/04/29 12:26:03;;;;;;;4.70;1.48;;;11.00;99.90;;;;;;5120639;27;20160;-77
2022/04/29 12:28:30;;;;;;;2.45;2.20;;;11.10;99.90;;;;;;5119812;27;20810;-77
2022/04/29 12:36:54;;;;;;;5.85;1.65;;;11.30;99.90;;;;;;5121046;28;20047;-79
2022/04/29 12:39:48;;;;;;;2.97;1.35;;;11.30;99.90;;;;;;5116972;27;20038;-79
2022/04/29 12:42:17;;;;;;;1.70;1.60;;;11.30;99.90;;;;;;5102421;28;20039;-79
2022/04/29 12:45:05;;;;;;;1.40;1.30;;;11.40;99.90;;;;;;5122955;27;20071;-79
2022/04/29 12:47:39;;;;;;;1.02;0.85;;;11.40;99.90;;;;;;5100529;27;20058;-78
2022/04/29 12:50:28;;;;;;;2.92;1.50;;;11.30;99.90;;;;;;5111578;27;20035;-79
2022/04/29 12:53:00;;;;;;;1.02;1.02;;;11.30;99.90;;;;;;5131297;27;20085;-79
2022/04/29 12:55:32;;;;;;;;;;;11.30;99.90;;;;;;5120930;27;20122;-78
2022/04/29 12:58:16;;;;;;;1.42;1.30;;;11.30;99.90;;;;;;5121924;27;19965;-77
2022/04/29 13:00:59;;;;;;;1.52;1.10;;;11.20;99.90;;;;;;5104679;27;20091;-77
2022/04/29 13:03:26;;;;;;;;;;;11.20;99.90;;;;;;5105105;27;20303;-76
2022/04/29 13:05:52;;;;;;;1.15;1.15;;;11.20;99.90;;;;;;5101205;27;20387;-77
2022/04/29 13:08:18;;;;;;;1.70;1.20;;;11.30;99.90;;;;;;5124299;27;20035;-77
2022/04/29 13:10:55;;;;;;;3.92;1.33;;;11.40;99.90;;;;;;5124285;27;20043;-77
2022/04/29 13:13:23;;;;;;;5.13;1.70;;;11.40;99.90;;;;;;5112656;27;20046;-77
2022/04/29 13:15:49;;;;;;;6.47;1.48;;;11.50;99.90;;;;;;5123502;27;20039;-77
2022/04/29 13:18:17;;;;;;;2.85;1.27;;;11.50;99.90;;;;;;5105703;27;20039;-77
2022/04/29 13:20:43;;;;;;;1.67;1.15;;;11.50;99.90;;;;;;5124741;27;20127;-77
2022/04/29 13:23:10;;;;;;;1.10;0.73;;;11.60;99.90;;;;;;5125468;27;20035;-78
2022/04/29 13:25:40;;;;;;;1.15;1.05;;;11.60;99.90;;;;;;5125569;27;20075;-78
2022/04/29 13:28:07;;;;;;;1.80;1.33;;;11.60;99.90;;;;;;5089417;27;20539;-79
2022/04/29 13:30:32;;;;;;;3.03;1.17;;;11.60;99.90;;;;;;5123266;27;20473;-80
2022/04/29 13:32:58;;;;;;;1.52;1.08;;;11.60;99.90;;;;;;5116866;27;20031;-79
2022/04/29 13:35:24;;;;;;;1.10;1.10;;;11.50;99.90;;;;;;5104861;28;20059;-85